»·PEaware :: N421MH KBCE-KGJT

N421MH :: KBCE-KGJT

FLIGHT INFORMATION

Flight Status: Arrived
Operator: Privately registered:
United States
More flights under this callsign
Pilot: Drew L. (13237)
Aircraft: CESSNA 550 CITATION 2/S2/BRAVO
(C550)
More flights by this aircraft type
Origin: KBCE Bryce Canyon
United States
Destination: KGJT Walker
United States
More flights between these airports :: More routes between these airports
Route: BCE V8 GJT
File this flight plan on PilotEdge
Remarks: ROGER
Altitude:
(Current/Filed)
25,000ft
Speed:
(Current/Filed)
0kts
Departed: 27-Oct-18 10:19 AM
Arrived: 27-Oct-18 10:59 AM
Distance/Time
Traveled:
190nm/0:40
Distance/Time
To Go:
Arrived

Flight Plot

Page will automatically refresh every two minutes.

Flight plan parsing failed; only flown route is shown


Map Options




Map Legend


Flown Route
Filed Route
Departure Airport
Arrival Airport
Navaid (VOR, NDB)
Fix

Horizontal Profiles

Position Reports

Time Latitude Longitude Heading Altitude Ground
Speed
27-Oct-18 09:54 37.700501 -112.155640 132 7593ft 0kts
27-Oct-18 09:55 37.700501 -112.155640 132 7593ft 0kts
27-Oct-18 09:56 37.700501 -112.155640 132 7593ft 0kts
27-Oct-18 09:57 37.700501 -112.155640 132 7593ft 0kts
27-Oct-18 09:58 37.700501 -112.155640 132 7593ft 0kts
27-Oct-18 09:59 37.700501 -112.155640 132 7593ft 0kts
27-Oct-18 10:00 37.700501 -112.155640 132 7593ft 0kts
27-Oct-18 10:01 37.700501 -112.155640 132 7593ft 0kts
27-Oct-18 10:02 37.700501 -112.155640 132 7593ft 0kts
27-Oct-18 10:03 37.700501 -112.155640 132 7593ft 0kts
27-Oct-18 10:04 37.700501 -112.155640 132 7593ft 0kts
27-Oct-18 10:05 37.700238 -112.155704 211 7593ft 5kts
27-Oct-18 10:06 37.700106 -112.155752 174 7593ft 0kts
27-Oct-18 10:07 37.700106 -112.155752 174 7593ft 0kts
27-Oct-18 10:08 37.700106 -112.155752 174 7593ft 0kts
27-Oct-18 10:09 37.700106 -112.155752 174 7593ft 0kts
27-Oct-18 10:10 37.700106 -112.155752 174 7593ft 0kts
27-Oct-18 10:11 37.700106 -112.155752 174 7593ft 0kts
27-Oct-18 10:12 37.700106 -112.155752 174 7593ft 0kts
27-Oct-18 10:13 37.700106 -112.155752 174 7593ft 0kts
27-Oct-18 10:14 37.700106 -112.155752 174 7593ft 0kts
27-Oct-18 10:15 37.700106 -112.155752 174 7593ft 0kts
27-Oct-18 10:16 37.700106 -112.155752 174 7593ft 0kts
27-Oct-18 10:17 37.700106 -112.155752 174 7593ft 0kts
27-Oct-18 10:18 37.700106 -112.155752 174 7593ft 0kts
27-Oct-18 10:19 37.700106 -112.155752 174 7593ft 0kts
27-Oct-18 10:20 37.699903 -112.155584 138 7593ft 8kts
27-Oct-18 10:21 37.713240 -112.135786 50 8064ft 143kts
27-Oct-18 10:22 37.738970 -112.096875 22 10691ft 149kts
27-Oct-18 10:23 37.775481 -112.076279 20 13206ft 149kts
27-Oct-18 10:24 37.814357 -112.033553 54 14693ft 231kts
27-Oct-18 10:25 37.850339 -111.955685 57 16700ft 268kts
27-Oct-18 10:26 37.888369 -111.872542 56 18990ft 280kts
27-Oct-18 10:27 37.928070 -111.785890 55 21042ft 291kts
27-Oct-18 10:28 37.969324 -111.695601 55 22904ft 302kts
27-Oct-18 10:29 38.011821 -111.602325 54 24592ft 312kts
27-Oct-18 10:30 38.056725 -111.503696 54 25409ft 346kts
27-Oct-18 10:31 38.107165 -111.392218 55 25361ft 369kts
27-Oct-18 10:32 38.157586 -111.280124 55 25337ft 362kts
27-Oct-18 10:33 38.207097 -111.169998 55 25337ft 358kts
27-Oct-18 10:34 38.256203 -111.060446 55 25338ft 356kts
27-Oct-18 10:35 38.304964 -110.951274 55 25339ft 355kts
27-Oct-18 10:36 38.353628 -110.841942 55 25340ft 355kts
27-Oct-18 10:37 38.402283 -110.732243 55 25340ft 356kts
27-Oct-18 10:38 38.445013 -110.618182 61 25341ft 359kts
27-Oct-18 10:39 38.485361 -110.501928 61 25342ft 359kts
27-Oct-18 10:40 38.525631 -110.385248 61 25342ft 360kts
27-Oct-18 10:41 38.565804 -110.268404 62 25327ft 359kts
27-Oct-18 10:42 38.605622 -110.152123 62 25319ft 359kts
27-Oct-18 10:43 38.645557 -110.035052 62 25319ft 359kts
27-Oct-18 10:44 38.685601 -109.917208 62 24581ft 365kts
27-Oct-18 10:45 38.725785 -109.798401 62 22986ft 364kts
27-Oct-18 10:46 38.765621 -109.680134 63 21396ft 361kts
27-Oct-18 10:47 38.805052 -109.562626 63 19804ft 356kts
27-Oct-18 10:48 38.843685 -109.447043 64 18221ft 351kts
27-Oct-18 10:49 38.878777 -109.341599 65 16756ft 346kts
27-Oct-18 10:50 38.903361 -109.267522 65 15700ft 343kts
27-Oct-18 10:52 38.936121 -109.168507 65 14280ft 340kts
27-Oct-18 10:52 38.968496 -109.082560 60 13007ft 336kts
27-Oct-18 10:53 39.008997 -108.985098 60 11806ft 275kts
27-Oct-18 10:54 39.043058 -108.905053 60 10804ft 248kts
27-Oct-18 10:55 39.079834 -108.841061 40 10020ft 228kts
27-Oct-18 10:57 39.131310 -108.770340 56 9619ft 251kts
27-Oct-18 10:57 39.157462 -108.705975 72 8796ft 246kts
27-Oct-18 10:59 39.164992 -108.607515 107 6557ft 215kts
27-Oct-18 10:59 39.146086 -108.564527 127 5183ft 130kts
27-Oct-18 11:00 39.128743 -108.533019 125 4804ft 74kts
27-Oct-18 11:01 39.125945 -108.530281 160 4804ft 7kts
27-Oct-18 11:02 39.122217 -108.523568 126 4804ft 26kts
27-Oct-18 11:03 39.120535 -108.522348 36 4804ft 0kts

Navigation Log

Ident Type
Flight plan parsing failed, navigation log unavailable